createdAt,value
2022-09-24T00:01:25.957Z,31.03
2022-09-24T00:04:00.254Z,30.87
2022-09-24T00:06:30.235Z,31.40
2022-09-24T00:08:59.435Z,27.53
2022-09-24T00:11:28.745Z,32.10
2022-09-24T00:13:58.053Z,30.43
2022-09-24T00:16:28.498Z,30.83
2022-09-24T00:18:55.512Z,36.57
2022-09-24T00:21:26.564Z,33.90
2022-09-24T00:23:56.857Z,35.90
2022-09-24T00:26:43.496Z,34.00
2022-09-24T00:29:13.821Z,34.07
2022-09-24T00:31:40.645Z,35.27
2022-09-24T00:34:07.758Z,35.77
2022-09-24T00:36:34.527Z,35.70
2022-09-24T00:39:01.456Z,34.03
2022-09-24T00:41:30.509Z,36.53
2022-09-24T00:43:58.132Z,33.83
2022-09-24T00:46:42.968Z,35.37
2022-09-24T00:49:21.528Z,33.20
2022-09-24T00:51:53.389Z,32.83
2022-09-24T00:54:26.767Z,32.37
2022-09-24T00:56:55.304Z,30.90
2022-09-24T00:59:23.968Z,29.47
2022-09-24T01:01:54.018Z,26.97
2022-09-24T01:04:21.724Z,27.03
2022-09-24T01:06:50.088Z,27.20
2022-09-24T01:09:21.778Z,28.50
2022-09-24T01:12:07.091Z,27.83
2022-09-24T01:14:59.097Z,25.30
2022-09-24T01:17:48.107Z,26.27
2022-09-24T01:20:27.196Z,27.50
2022-09-24T01:23:18.676Z,27.30
2022-09-24T01:26:19.103Z,24.53
2022-09-24T01:29:23.299Z,25.43
2022-09-24T01:32:06.890Z,27.97
2022-09-24T01:34:47.943Z,23.20
2022-09-24T01:37:20.618Z,23.07
2022-09-24T01:39:48.386Z,25.10
2022-09-24T01:42:20.222Z,24.13
2022-09-24T01:44:47.904Z,21.67
2022-09-24T01:47:21.164Z,21.07
2022-09-24T01:49:48.008Z,20.83
2022-09-24T01:52:26.316Z,24.43
2022-09-24T01:54:56.543Z,23.70
2022-09-24T01:57:28.012Z,23.50
2022-09-24T02:00:00.092Z,23.10
2022-09-24T02:02:36.618Z,23.20
2022-09-24T02:05:24.481Z,19.97
2022-09-24T02:08:12.007Z,19.83
2022-09-24T02:10:46.571Z,21.40
2022-09-24T02:13:15.549Z,21.03
2022-09-24T02:15:46.675Z,19.33
2022-09-24T02:18:17.585Z,18.63
2022-09-24T02:20:44.762Z,19.33
2022-09-24T02:23:15.161Z,19.77
2022-09-24T02:26:03.883Z,18.83
2022-09-24T02:28:32.519Z,21.23
2022-09-24T02:31:13.088Z,18.57
2022-09-24T02:34:02.660Z,17.57
2022-09-24T02:36:30.258Z,18.83
2022-09-24T02:38:57.166Z,18.23
2022-09-24T02:41:24.994Z,21.00
2022-09-24T02:43:52.573Z,18.77
2022-09-24T02:46:22.636Z,19.20
2022-09-24T02:48:49.938Z,17.63
2022-09-24T02:51:19.229Z,18.47
2022-09-24T02:53:45.959Z,20.67
2022-09-24T02:56:14.939Z,17.00
2022-09-24T02:58:43.183Z,19.57
2022-09-24T03:01:10.004Z,20.37
2022-09-24T03:03:36.823Z,19.07
2022-09-24T03:06:03.661Z,19.43
2022-09-24T03:08:32.401Z,21.53
2022-09-24T03:10:59.232Z,21.87
2022-09-24T03:13:26.056Z,20.93
2022-09-24T03:15:55.409Z,19.93
2022-09-24T03:18:22.314Z,20.73
2022-09-24T03:20:59.799Z,24.23
2022-09-24T03:23:26.912Z,19.27
2022-09-24T03:25:54.443Z,25.23
2022-09-24T03:28:21.551Z,22.20
2022-09-24T03:31:00.967Z,21.30
2022-09-24T03:33:42.292Z,22.27
2022-09-24T03:36:12.110Z,19.67
2022-09-24T03:38:40.845Z,19.90
2022-09-24T03:41:09.064Z,19.93
2022-09-24T03:43:37.088Z,20.20
2022-09-24T03:46:06.992Z,21.70
2022-09-24T03:48:36.321Z,19.63
2022-09-24T03:51:15.315Z,19.73
2022-09-24T03:53:42.186Z,20.73
2022-09-24T03:56:11.267Z,19.10
2022-09-24T03:58:39.141Z,21.00
2022-09-24T04:01:07.406Z,18.67
2022-09-24T04:03:34.604Z,17.53
2022-09-24T04:06:01.710Z,20.57
2022-09-24T04:08:28.547Z,17.47
2022-09-24T04:10:55.647Z,17.30
2022-09-24T04:13:22.676Z,17.13
2022-09-24T04:15:50.398Z,16.70
2022-09-24T04:18:17.953Z,18.70
2022-09-24T04:20:47.879Z,17.33
2022-09-24T04:23:14.593Z,21.07
2022-09-24T04:25:41.371Z,17.80
2022-09-24T04:28:09.797Z,18.27
2022-09-24T04:30:38.147Z,20.73
2022-09-24T04:33:05.777Z,19.23
2022-09-24T04:35:35.503Z,18.73
2022-09-24T04:38:03.349Z,17.93
2022-09-24T04:40:30.589Z,19.20
2022-09-24T04:42:57.607Z,19.63
2022-09-24T04:45:24.950Z,18.73
2022-09-24T04:47:58.344Z,16.80
2022-09-24T04:50:33.382Z,17.73
2022-09-24T04:53:02.590Z,17.47
2022-09-24T04:55:29.338Z,18.00
2022-09-24T04:57:57.136Z,18.60
2022-09-24T05:00:24.446Z,18.50
2022-09-24T05:02:59.397Z,17.67
2022-09-24T05:05:29.362Z,17.83
2022-09-24T05:07:59.148Z,15.07
2022-09-24T05:10:27.036Z,15.40
2022-09-24T05:12:54.090Z,17.47
2022-09-24T05:15:27.083Z,16.90
2022-09-24T05:17:53.799Z,15.53
2022-09-24T05:20:20.747Z,16.60
2022-09-24T05:22:52.161Z,17.43
2022-09-24T05:25:22.261Z,15.20
2022-09-24T05:27:51.890Z,15.73
2022-09-24T05:30:20.769Z,17.27
2022-09-24T05:32:51.951Z,18.00
2022-09-24T05:35:20.334Z,16.53
2022-09-24T05:37:49.526Z,17.70
2022-09-24T05:40:35.895Z,19.77
2022-09-24T05:43:04.310Z,17.23
2022-09-24T05:45:31.854Z,17.87
2022-09-24T05:48:01.867Z,16.43
2022-09-24T05:50:35.250Z,19.00
2022-09-24T05:53:02.742Z,19.03
2022-09-24T05:55:32.356Z,19.53
2022-09-24T05:58:07.262Z,18.90
2022-09-24T06:00:37.611Z,19.63
2022-09-24T06:03:12.543Z,21.30
2022-09-24T06:05:43.078Z,23.10
2022-09-24T06:08:12.887Z,18.07
2022-09-24T06:10:47.321Z,19.27
2022-09-24T06:13:21.255Z,19.63
2022-09-24T06:15:48.092Z,19.90
2022-09-24T06:18:15.436Z,19.10
2022-09-24T06:20:42.189Z,19.83
2022-09-24T06:23:08.924Z,19.13
2022-09-24T06:25:35.793Z,19.60
2022-09-24T06:28:04.327Z,21.87
2022-09-24T06:30:38.983Z,20.03
2022-09-24T06:33:09.686Z,19.27
2022-09-24T06:35:41.528Z,20.43
2022-09-24T06:38:13.354Z,23.30
2022-09-24T06:40:40.672Z,21.80
2022-09-24T06:43:09.833Z,18.77
2022-09-24T06:45:43.332Z,22.17
2022-09-24T06:48:12.396Z,24.53
2022-09-24T06:50:42.258Z,21.73
2022-09-24T06:53:10.533Z,19.13
2022-09-24T06:55:38.300Z,21.63
2022-09-24T06:58:07.420Z,22.40
2022-09-24T07:00:35.311Z,21.97
2022-09-24T07:03:02.450Z,20.83
2022-09-24T07:05:29.427Z,19.67
2022-09-24T07:07:56.237Z,23.50
2022-09-24T07:10:24.570Z,23.43
2022-09-24T07:12:51.362Z,23.73
2022-09-24T07:15:18.292Z,20.37
2022-09-24T07:17:45.029Z,21.00
2022-09-24T07:20:11.843Z,21.60
2022-09-24T07:22:40.371Z,20.53
2022-09-24T07:25:12.929Z,19.93
2022-09-24T07:27:40.008Z,20.10
2022-09-24T07:30:08.715Z,19.27
2022-09-24T07:32:35.678Z,25.23
2022-09-24T07:35:02.550Z,20.13
2022-09-24T07:37:32.472Z,19.17
2022-09-24T07:39:59.633Z,22.20
2022-09-24T07:42:26.558Z,21.67
2022-09-24T07:44:53.391Z,24.17
2022-09-24T07:47:20.262Z,19.57
2022-09-24T07:49:47.067Z,22.97
2022-09-24T07:52:14.014Z,22.40
2022-09-24T07:54:41.185Z,21.13
2022-09-24T07:57:13.598Z,20.30
2022-09-24T07:59:41.468Z,22.00
2022-09-24T08:02:17.076Z,22.17
2022-09-24T08:04:44.483Z,21.97
2022-09-24T08:07:12.475Z,19.33
2022-09-24T08:09:39.841Z,19.80
2022-09-24T08:12:07.502Z,20.83
2022-09-24T08:14:36.355Z,20.30
2022-09-24T08:17:03.194Z,20.40
2022-09-24T08:19:31.392Z,20.97
2022-09-24T08:21:58.654Z,19.57
2022-09-24T08:24:25.930Z,21.30
2022-09-24T08:26:52.774Z,22.17
2022-09-24T08:29:19.533Z,17.23
2022-09-24T08:31:46.411Z,19.57
2022-09-24T08:34:13.254Z,19.83
2022-09-24T08:36:42.911Z,17.77
2022-09-24T08:39:10.622Z,19.73
2022-09-24T08:42:02.434Z,20.97
2022-09-24T08:45:03.031Z,18.73
2022-09-24T08:47:45.640Z,21.43
2022-09-24T08:50:17.632Z,21.03
2022-09-24T08:52:45.591Z,20.13
2022-09-24T08:55:35.886Z,21.70
2022-09-24T08:58:22.619Z,21.83
2022-09-24T09:01:12.233Z,20.87
2022-09-24T09:04:01.784Z,21.27
2022-09-24T09:06:50.123Z,20.23
2022-09-24T09:09:23.562Z,21.13
2022-09-24T09:12:00.850Z,21.43
2022-09-24T09:14:42.529Z,21.63
2022-09-24T09:17:32.461Z,21.97
2022-09-24T09:20:03.993Z,24.47
2022-09-24T09:22:39.689Z,21.67
2022-09-24T09:25:25.550Z,21.97
2022-09-24T09:28:14.189Z,21.90
2022-09-24T09:31:11.815Z,20.90
2022-09-24T09:34:01.177Z,19.23
2022-09-24T09:36:48.195Z,21.10
2022-09-24T09:39:47.817Z,21.70
2022-09-24T09:42:39.851Z,21.80
2022-09-24T09:45:32.921Z,21.53
2022-09-24T09:48:03.144Z,23.60
2022-09-24T09:50:36.896Z,23.23
2022-09-24T09:53:06.544Z,21.27
2022-09-24T09:55:37.980Z,22.53
2022-09-24T09:58:34.903Z,22.40
2022-09-24T10:01:10.874Z,22.43
2022-09-24T10:03:46.452Z,22.87
2022-09-24T10:06:22.573Z,22.90
2022-09-24T10:08:49.552Z,23.77
2022-09-24T10:11:17.376Z,22.47
2022-09-24T10:13:44.841Z,22.27
2022-09-24T10:16:13.920Z,20.70
2022-09-24T10:18:47.463Z,19.67
2022-09-24T10:21:34.425Z,19.13
2022-09-24T10:24:09.183Z,20.17
2022-09-24T10:26:45.623Z,19.60
2022-09-24T10:29:48.316Z,20.10
2022-09-24T10:32:18.833Z,21.83
2022-09-24T10:35:02.833Z,21.33
2022-09-24T10:37:30.121Z,20.43
2022-09-24T10:40:01.688Z,21.33
2022-09-24T10:42:31.210Z,22.43
2022-09-24T10:45:01.322Z,23.00
2022-09-24T10:47:36.228Z,23.90
2022-09-24T10:50:18.826Z,21.27
2022-09-24T10:53:01.205Z,18.60
2022-09-24T10:55:52.550Z,21.00
2022-09-24T10:58:49.082Z,19.53
2022-09-24T11:01:22.042Z,23.43
2022-09-24T11:04:00.810Z,20.33
2022-09-24T11:06:45.639Z,20.53
2022-09-24T11:09:26.811Z,20.93
2022-09-24T11:12:32.361Z,17.37
2022-09-24T11:15:25.851Z,22.73
2022-09-24T11:18:11.031Z,21.13
2022-09-24T11:20:43.093Z,21.73
2022-09-24T11:23:37.065Z,21.63
2022-09-24T11:26:27.171Z,22.33
2022-09-24T11:28:57.195Z,20.37
2022-09-24T11:31:46.989Z,23.47
2022-09-24T11:34:44.592Z,23.07
2022-09-24T11:37:39.230Z,19.67
2022-09-24T11:40:40.706Z,21.43
2022-09-24T11:43:16.546Z,21.13
2022-09-24T11:45:55.746Z,21.73
2022-09-24T11:48:42.348Z,20.57
2022-09-24T11:51:37.533Z,20.63
2022-09-24T11:54:21.928Z,19.33
2022-09-24T11:56:53.952Z,19.43
2022-09-24T11:59:34.804Z,17.43
2022-09-24T12:02:17.946Z,16.90
2022-09-24T12:05:12.762Z,17.60
2022-09-24T12:08:02.238Z,14.40
2022-09-24T12:10:53.849Z,14.23
2022-09-24T12:13:28.715Z,16.00
2022-09-24T12:16:00.315Z,16.37
2022-09-24T12:18:55.298Z,16.70
2022-09-24T12:21:42.368Z,20.00
2022-09-24T12:24:51.228Z,18.90
2022-09-24T12:27:36.963Z,17.50
2022-09-24T12:30:58.625Z,20.53
2022-09-24T12:33:43.980Z,18.53
2022-09-24T12:36:57.190Z,19.67
2022-09-24T12:39:31.076Z,18.17
2022-09-24T12:42:06.317Z,14.43
2022-09-24T12:44:54.964Z,14.97
2022-09-24T12:47:24.804Z,13.60
2022-09-24T12:50:05.731Z,14.40
2022-09-24T12:52:42.139Z,13.00
2022-09-24T12:55:33.507Z,12.17
2022-09-24T12:58:43.271Z,14.63
2022-09-24T13:01:39.960Z,9.87
2022-09-24T13:04:25.875Z,12.60
2022-09-24T13:06:53.666Z,14.47
2022-09-24T13:09:41.509Z,13.53
2022-09-24T13:12:17.684Z,11.90
2022-09-24T13:15:04.289Z,11.87
2022-09-24T13:17:33.797Z,11.70
2022-09-24T13:20:24.318Z,12.50
2022-09-24T13:23:29.660Z,12.27
2022-09-24T13:26:04.933Z,14.80
2022-09-24T13:28:39.385Z,13.73
2022-09-24T13:31:29.575Z,13.60
2022-09-24T13:34:11.468Z,14.23
2022-09-24T13:37:10.851Z,12.60
2022-09-24T13:39:53.337Z,13.10
2022-09-24T13:42:46.092Z,13.07
2022-09-24T13:45:19.914Z,12.93
2022-09-24T13:47:53.991Z,12.67
2022-09-24T13:50:28.222Z,14.33
2022-09-24T13:53:00.603Z,11.43
2022-09-24T13:55:34.691Z,11.70
2022-09-24T13:58:01.473Z,10.50
2022-09-24T14:00:31.306Z,10.53
2022-09-24T14:03:03.643Z,10.93
2022-09-24T14:05:40.204Z,9.27
2022-09-24T14:08:18.753Z,10.00
2022-09-24T14:10:49.169Z,9.33
2022-09-24T14:13:23.920Z,10.37
2022-09-24T14:15:53.032Z,10.63
2022-09-24T14:18:20.496Z,11.03
2022-09-24T14:21:26.903Z,8.83
2022-09-24T14:24:13.883Z,10.43
2022-09-24T14:26:58.686Z,9.87
2022-09-24T14:29:34.947Z,10.17
2022-09-24T14:32:04.108Z,9.30
2022-09-24T14:34:38.968Z,8.70
2022-09-24T14:37:31.611Z,10.67
2022-09-24T14:40:05.717Z,9.57
2022-09-24T14:42:47.004Z,11.50
2022-09-24T14:45:26.438Z,10.20
2022-09-24T14:52:01.714Z,9.83
2022-09-24T14:54:42.783Z,8.67
2022-09-24T14:57:19.325Z,7.83
2022-09-24T14:59:46.996Z,7.37
2022-09-24T15:02:37.084Z,6.93
2022-09-24T15:05:08.546Z,9.27
2022-09-24T15:07:39.897Z,8.23
2022-09-24T15:10:07.271Z,7.10
2022-09-24T15:12:36.220Z,6.33
2022-09-24T15:15:25.469Z,6.10
2022-09-24T15:17:54.639Z,6.37
2022-09-24T15:20:21.315Z,5.47
2022-09-24T15:22:48.211Z,6.03
2022-09-24T15:25:15.566Z,7.00
2022-09-24T15:27:45.384Z,6.50
2022-09-24T15:30:19.659Z,6.07
2022-09-24T15:32:47.517Z,4.60
2022-09-24T15:35:16.477Z,4.90
2022-09-24T15:37:44.399Z,5.23
2022-09-24T15:40:25.638Z,5.90
2022-09-24T15:42:52.980Z,6.37
2022-09-24T15:45:21.945Z,5.20
2022-09-24T15:47:52.610Z,4.63
2022-09-24T15:50:22.533Z,3.67
2022-09-24T15:52:54.304Z,3.93
2022-09-24T15:55:22.547Z,3.70
2022-09-24T15:57:49.372Z,4.67
2022-09-24T16:00:18.658Z,4.53
2022-09-24T16:02:50.359Z,6.93
2022-09-24T16:05:17.746Z,4.93
2022-09-24T16:07:44.515Z,5.17
2022-09-24T16:10:13.267Z,4.97
2022-09-24T16:12:41.050Z,4.00
2022-09-24T16:15:19.198Z,7.23
2022-09-24T16:17:50.006Z,4.27
2022-09-24T16:20:17.052Z,4.43
2022-09-24T16:22:45.578Z,4.10
2022-09-24T16:25:12.324Z,3.70
2022-09-24T16:27:40.488Z,5.00
2022-09-24T16:30:08.333Z,5.57
2022-09-24T16:32:37.807Z,7.20
2022-09-24T16:35:04.808Z,6.07
2022-09-24T16:37:34.653Z,4.87
2022-09-24T16:40:01.497Z,5.77
2022-09-24T16:42:28.301Z,5.10
2022-09-24T16:45:00.478Z,4.27
2022-09-24T16:47:27.337Z,5.47
2022-09-24T16:49:54.128Z,4.60
2022-09-24T16:52:21.003Z,6.50
2022-09-24T16:54:47.672Z,6.93
2022-09-24T16:57:14.609Z,10.17
2022-09-24T16:59:41.482Z,4.97
2022-09-24T17:02:12.193Z,5.97
2022-09-24T17:04:39.810Z,5.97
2022-09-24T17:07:06.720Z,6.23
2022-09-24T17:09:51.986Z,5.73
2022-09-24T17:12:18.842Z,6.53
2022-09-24T17:14:45.897Z,7.07
2022-09-24T17:17:12.673Z,5.30
2022-09-24T17:19:39.484Z,4.47
2022-09-24T17:22:06.274Z,6.93
2022-09-24T17:24:35.857Z,6.90
2022-09-24T17:27:02.671Z,6.03
2022-09-24T17:29:32.239Z,5.93
2022-09-24T17:31:59.124Z,5.40
2022-09-24T17:34:26.200Z,5.30
2022-09-24T17:36:52.907Z,5.90
2022-09-24T17:39:22.572Z,12.33
2022-09-24T17:41:49.332Z,9.73
2022-09-24T17:44:17.901Z,9.30
2022-09-24T17:46:47.584Z,10.23
2022-09-24T17:49:15.595Z,7.23
2022-09-24T17:51:42.348Z,7.90
2022-09-24T17:54:12.696Z,9.20
2022-09-24T17:56:40.595Z,6.50
2022-09-24T17:59:09.625Z,10.30
2022-09-24T18:01:38.193Z,6.27
2022-09-24T18:04:07.621Z,6.97
2022-09-24T18:06:37.645Z,9.90
2022-09-24T18:09:05.331Z,6.17
2022-09-24T18:11:52.743Z,9.73
2022-09-24T18:14:22.172Z,9.97
2022-09-24T18:16:50.163Z,5.53
2022-09-24T18:19:17.724Z,4.17
2022-09-24T18:21:48.097Z,9.10
2022-09-24T18:24:16.502Z,11.50
2022-09-24T18:26:43.540Z,9.57
2022-09-24T18:29:18.021Z,10.63
2022-09-24T18:31:45.454Z,7.53
2022-09-24T18:34:14.730Z,7.60
2022-09-24T18:36:43.993Z,10.23
2022-09-24T18:39:13.578Z,6.03
2022-09-24T18:41:41.917Z,7.40
2022-09-24T18:44:10.604Z,9.07
2022-09-24T18:46:38.328Z,5.47
2022-09-24T18:49:06.639Z,10.50
2022-09-24T18:51:35.788Z,8.07
2022-09-24T18:54:08.947Z,6.60
2022-09-24T18:56:36.420Z,8.40
2022-09-24T18:59:23.961Z,11.57
2022-09-24T19:01:52.161Z,12.10
2022-09-24T19:04:19.575Z,9.83
2022-09-24T19:06:50.745Z,6.20
2022-09-24T19:09:20.280Z,7.33
2022-09-24T19:11:49.037Z,8.20
2022-09-24T19:14:18.478Z,4.63
2022-09-24T19:16:47.146Z,10.23
2022-09-24T19:19:16.681Z,13.43
2022-09-24T19:21:43.916Z,9.10
2022-09-24T19:24:11.416Z,6.07
2022-09-24T19:26:38.601Z,8.83
2022-09-24T19:29:05.537Z,8.47
2022-09-24T19:31:41.668Z,10.20
2022-09-24T19:34:11.765Z,7.93
2022-09-24T19:36:44.837Z,8.90
2022-09-24T19:39:14.756Z,6.83
2022-09-24T19:41:42.938Z,7.40
2022-09-24T19:44:10.810Z,7.87
2022-09-24T19:46:41.175Z,8.23
2022-09-24T19:49:08.932Z,8.07
2022-09-24T19:51:36.993Z,7.47
2022-09-24T19:54:09.089Z,3.93
2022-09-24T19:56:37.097Z,11.27
2022-09-24T19:59:08.728Z,7.27
2022-09-24T20:01:35.677Z,14.23
2022-09-24T20:04:04.977Z,7.90
2022-09-24T20:06:34.005Z,12.30
2022-09-24T20:09:01.374Z,8.93
2022-09-24T20:11:29.355Z,6.50
2022-09-24T20:13:56.925Z,6.70
2022-09-24T20:16:26.619Z,7.33
2022-09-24T20:18:57.691Z,7.10
2022-09-24T20:21:30.089Z,6.33
2022-09-24T20:23:57.984Z,6.57
2022-09-24T20:26:44.285Z,4.43
2022-09-24T20:29:12.424Z,4.63
2022-09-24T20:31:53.322Z,6.40
2022-09-24T20:34:24.656Z,6.40
2022-09-24T20:36:52.178Z,4.97
2022-09-24T20:39:19.235Z,6.07
2022-09-24T20:41:46.131Z,5.17
2022-09-24T20:44:13.514Z,3.93
2022-09-24T20:46:40.402Z,2.53
2022-09-24T20:49:07.140Z,7.27
2022-09-24T20:51:34.008Z,5.03
2022-09-24T20:54:01.213Z,7.53
2022-09-24T20:56:30.807Z,6.43
2022-09-24T20:58:58.526Z,7.47
2022-09-24T21:01:25.773Z,4.60
2022-09-24T21:03:52.999Z,4.07
2022-09-24T21:06:25.819Z,6.33
2022-09-24T21:08:56.247Z,6.70
2022-09-24T21:11:26.526Z,4.73
2022-09-24T21:13:56.095Z,6.10
2022-09-24T21:16:25.588Z,7.47
2022-09-24T21:18:55.949Z,7.00
2022-09-24T21:21:28.908Z,7.27
2022-09-24T21:23:57.798Z,6.60
2022-09-24T21:26:36.218Z,9.07
2022-09-24T21:29:11.802Z,3.93
2022-09-24T21:31:40.046Z,3.83
2022-09-24T21:34:08.376Z,6.73
2022-09-24T21:36:44.266Z,6.50
2022-09-24T21:39:20.652Z,3.03
2022-09-24T21:41:53.006Z,5.13
2022-09-24T21:44:22.043Z,6.27
2022-09-24T21:46:52.544Z,4.70
2022-09-24T21:49:20.485Z,7.37
2022-09-24T21:51:47.376Z,5.80
2022-09-24T21:54:17.142Z,8.17
2022-09-24T21:56:45.368Z,4.50
2022-09-24T21:59:47.250Z,5.63
2022-09-24T22:02:14.794Z,3.97
2022-09-24T22:04:41.803Z,4.97
2022-09-24T22:07:08.626Z,6.37
2022-09-24T22:09:35.602Z,4.30
2022-09-24T22:12:04.008Z,6.90
2022-09-24T22:14:31.129Z,5.33
2022-09-24T22:16:58.004Z,5.63
2022-09-24T22:19:24.784Z,5.67
2022-09-24T22:21:52.333Z,3.63
2022-09-24T22:24:19.048Z,3.93
2022-09-24T22:26:46.166Z,7.30
2022-09-24T22:29:13.026Z,7.80
2022-09-24T22:31:39.807Z,4.00
2022-09-24T22:34:25.207Z,6.40
2022-09-24T22:36:51.869Z,5.03
2022-09-24T22:39:18.600Z,8.60
2022-09-24T22:41:52.540Z,6.63
2022-09-24T22:44:19.670Z,6.27
2022-09-24T22:46:46.534Z,6.60
2022-09-24T22:49:13.277Z,7.20
2022-09-24T22:51:40.172Z,5.40
2022-09-24T22:54:09.674Z,10.80
2022-09-24T22:56:37.294Z,7.33
2022-09-24T22:59:04.887Z,5.93
2022-09-24T23:01:34.271Z,10.00
2022-09-24T23:04:01.851Z,4.87
2022-09-24T23:06:30.278Z,5.60
2022-09-24T23:08:57.124Z,4.83
2022-09-24T23:11:29.192Z,8.07
2022-09-24T23:14:05.362Z,6.70
2022-09-24T23:16:35.608Z,4.73
2022-09-24T23:19:06.157Z,4.67
2022-09-24T23:21:34.116Z,9.13
2022-09-24T23:24:22.102Z,7.30
2022-09-24T23:26:51.001Z,4.47
2022-09-24T23:29:17.818Z,7.80
2022-09-24T23:31:45.974Z,6.47
2022-09-24T23:34:14.033Z,3.80
2022-09-24T23:36:48.633Z,7.40
2022-09-24T23:39:15.441Z,4.43
2022-09-24T23:41:42.340Z,5.83
2022-09-24T23:44:12.282Z,4.57
2022-09-24T23:46:39.109Z,6.50
2022-09-24T23:49:05.814Z,6.90
2022-09-24T23:51:32.582Z,8.00
2022-09-24T23:53:59.995Z,4.00
2022-09-24T23:56:28.300Z,6.53
2022-09-24T23:58:55.204Z,4.37
